Time,TemperatureF,DewpointF,PressureIn,WindDirection,WindDirectionDegrees,WindSpeedMPH,WindSpeedGustMPH,Humidity,HourlyPrecipIn,Conditions,Clouds,dailyrainin,SolarRadiationWatts/m^2,SoftwareType,DateUTC
2013-04-05 00:03:00,65.9,60.9,30.03,NE,47,5.8,5.8,84,0.00,CLR,,0.00,0.0,WeatherDisplay:10.37,2013-04-05 10:03:00,
2013-04-05 00:08:00,65.8,60.8,30.03,NNE,30,3.0,3.0,84,0.00,CLR,,0.00,0.0,WeatherDisplay:10.37,2013-04-05 10:08:00,
2013-04-05 00:13:00,65.8,60.8,30.02,North,360,5.8,5.8,84,0.00,CLR,,0.00,0.0,WeatherDisplay:10.37,2013-04-05 10:13:00,
2013-04-05 00:18:00,65.8,60.8,30.02,NE,49,5.8,5.8,84,0.00,CLR,,0.00,0.0,WeatherDisplay:10.37,2013-04-05 10:18:00,
2013-04-05 00:23:00,65.9,60.9,30.02,NE,46,3.5,3.5,84,0.00,CLR,,0.00,0.0,WeatherDisplay:10.37,2013-04-05 10:23:00,
2013-04-05 00:28:00,65.9,60.9,30.02,ENE,66,6.9,6.9,84,0.00,CLR,,0.00,0.0,WeatherDisplay:10.37,2013-04-05 10:28:00,
2013-04-05 00:33:00,65.9,60.9,30.02,NE,47,3.5,3.5,84,0.00,CLR,,0.00,0.0,WeatherDisplay:10.37,2013-04-05 10:33:00,
2013-04-05 00:38:00,65.9,60.9,30.02,NNE,21,3.5,3.5,84,0.00,CLR,,0.00,0.0,WeatherDisplay:10.37,2013-04-05 10:38:00,
2013-04-05 00:43:00,65.9,60.9,30.02,NE,47,2.3,2.3,84,0.00,CLR,,0.00,0.0,WeatherDisplay:10.37,2013-04-05 10:43:00,
2013-04-05 00:48:00,65.8,60.8,30.01,NNE,24,2.3,2.3,84,0.00,CLR,,0.00,0.0,WeatherDisplay:10.37,2013-04-05 10:48:00,
2013-04-05 00:53:00,65.7,60.7,30.01,NNE,13,4.6,4.6,84,0.00,CLR,,0.00,0.0,WeatherDisplay:10.37,2013-04-05 10:53:00,
2013-04-05 00:58:00,65.6,60.6,30.01,NE,42,2.3,2.3,84,0.00,CLR,,0.00,0.0,WeatherDisplay:10.37,2013-04-05 10:58:00,
2013-04-05 01:03:00,65.6,61.0,30.01,NNE,33,3.5,3.5,85,0.00,CLR,,0.00,0.0,WeatherDisplay:10.37,2013-04-05 11:03:00,
2013-04-05 01:08:00,65.5,60.9,30.01,North,355,3.5,3.5,85,0.00,CLR,,0.00,0.0,WeatherDisplay:10.37,2013-04-05 11:08:00,
2013-04-05 01:13:00,65.4,60.8,30.01,North,350,2.3,2.3,85,0.00,CLR,,0.00,0.0,WeatherDisplay:10.37,2013-04-05 11:13:00,
2013-04-05 01:18:00,65.4,60.8,30.01,ENE,66,2.3,2.3,85,0.00,CLR,,0.00,0.0,WeatherDisplay:10.37,2013-04-05 11:18:00,
2013-04-05 01:23:00,65.2,60.6,30.01,NE,38,3.5,3.5,85,0.00,CLR,,0.00,0.0,WeatherDisplay:10.37,2013-04-05 11:23:00,
2013-04-05 01:28:00,65.1,60.5,30.01,NE,34,2.3,2.3,85,0.00,CLR,,0.00,0.0,WeatherDisplay:10.37,2013-04-05 11:28:00,
2013-04-05 01:33:00,65.1,60.5,30.00,North,360,2.3,2.3,85,0.00,CLR,,0.00,0.0,WeatherDisplay:10.37,2013-04-05 11:33:00,
2013-04-05 01:38:00,65.0,60.4,30.00,NNE,19,2.3,2.3,85,0.00,CLR,,0.00,0.0,WeatherDisplay:10.37,2013-04-05 11:38:00,
2013-04-05 01:43:00,65.0,60.7,30.00,NE,40,1.1,1.1,86,0.00,CLR,,0.00,0.0,WeatherDisplay:10.37,2013-04-05 11:43:00,
2013-04-05 01:48:00,65.0,60.7,30.00,NE,35,3.5,3.5,86,0.00,CLR,,0.00,0.0,WeatherDisplay:10.37,2013-04-05 11:48:00,
2013-04-05 01:54:00,65.0,60.7,30.00,NE,42,3.5,3.5,86,0.00,CLR,,0.00,0.0,WeatherDisplay:10.37,2013-04-05 11:54:00,
2013-04-05 01:59:00,65.0,60.7,30.00,NE,48,2.3,2.3,86,0.00,CLR,,0.00,0.0,WeatherDisplay:10.37,2013-04-05 11:59:00,
2013-04-05 02:04:00,64.9,60.6,30.00,NNE,24,4.6,4.6,86,0.00,CLR,,0.00,0.0,WeatherDisplay:10.37,2013-04-05 12:04:00,
2013-04-05 02:09:00,64.9,60.6,30.00,NNE,19,4.6,4.6,86,0.00,CLR,,0.00,0.0,WeatherDisplay:10.37,2013-04-05 12:09:00,
2013-04-05 02:14:00,65.0,60.7,30.00,NNE,22,5.8,5.8,86,0.00,CLR,,0.00,0.0,WeatherDisplay:10.37,2013-04-05 12:14:00,
2013-04-05 02:19:00,65.0,60.7,29.99,North,5,3.5,3.5,86,0.00,CLR,,0.00,0.0,WeatherDisplay:10.37,2013-04-05 12:19:00,
2013-04-05 02:24:00,64.9,60.6,29.99,NNE,15,3.5,3.5,86,0.00,CLR,,0.00,0.0,WeatherDisplay:10.37,2013-04-05 12:24:00,
2013-04-05 02:29:00,64.9,60.6,29.99,North,360,3.5,3.5,86,0.00,CLR,,0.00,0.0,WeatherDisplay:10.37,2013-04-05 12:29:00,
2013-04-05 02:34:00,64.8,60.5,29.99,NE,41,3.5,3.5,86,0.00,CLR,,0.00,0.0,WeatherDisplay:10.37,2013-04-05 12:34:00,
2013-04-05 02:39:00,64.7,60.4,29.99,NE,42,4.6,4.6,86,0.00,CLR,,0.00,0.0,WeatherDisplay:10.37,2013-04-05 12:39:00,
2013-04-05 02:45:00,64.7,60.4,29.99,NE,45,3.5,3.5,86,0.00,CLR,,0.00,0.0,WeatherDisplay:10.37,2013-04-05 12:45:00,
2013-04-05 02:50:00,64.8,60.5,29.99,NE,38,3.5,3.5,86,0.00,CLR,,0.00,0.0,WeatherDisplay:10.37,2013-04-05 12:50:00,
2013-04-05 02:55:00,64.7,60.1,29.99,NNE,19,3.5,3.5,85,0.00,CLR,,0.00,0.0,WeatherDisplay:10.37,2013-04-05 12:55:00,
2013-04-05 03:00:00,64.7,60.4,29.99,NE,36,1.0,5.0,86,0.00,CLR,,0.00,0.0,WeatherDisplay:10.37,2013-04-05 13:00:00,
2013-04-05 03:05:00,64.7,60.4,29.99,NNE,13,3.5,3.5,86,0.00,CLR,,0.00,0.0,WeatherDisplay:10.37,2013-04-05 13:05:00,
2013-04-05 03:10:00,64.7,60.4,29.98,NNE,26,2.0,7.0,86,0.00,CLR,,0.00,0.0,WeatherDisplay:10.37,2013-04-05 13:10:00,
2013-04-05 03:15:00,64.8,60.5,29.98,North,5,4.6,4.6,86,0.00,CLR,,0.00,0.0,WeatherDisplay:10.37,2013-04-05 13:15:00,
2013-04-05 03:20:00,64.8,60.2,29.98,NNE,13,5.0,5.0,85,0.00,CLR,,0.00,0.0,WeatherDisplay:10.37,2013-04-05 13:20:00,
2013-04-05 03:25:00,64.9,60.3,29.98,NE,44,2.3,2.7,85,0.00,CLR,,0.00,0.0,WeatherDisplay:10.37,2013-04-05 13:25:00,
2013-04-05 03:30:00,64.9,60.3,29.98,NE,37,0.0,6.0,85,0.00,CLR,,0.00,0.0,WeatherDisplay:10.37,2013-04-05 13:30:00,
2013-04-05 03:35:00,64.9,60.3,29.98,NE,56,3.5,3.5,85,0.00,CLR,,0.00,0.0,WeatherDisplay:10.37,2013-04-05 13:35:00,
2013-04-05 03:40:00,65.0,60.4,29.98,NNE,29,3.0,7.0,85,0.00,CLR,,0.00,0.0,WeatherDisplay:10.37,2013-04-05 13:40:00,
2013-04-05 03:45:00,65.0,60.4,29.98,NE,47,4.6,4.6,85,0.00,CLR,,0.00,0.0,WeatherDisplay:10.37,2013-04-05 13:45:00,
2013-04-05 03:50:00,65.0,60.4,29.98,NE,35,1.0,5.0,85,0.00,CLR,,0.00,0.0,WeatherDisplay:10.37,2013-04-05 13:50:00,
2013-04-05 03:55:00,65.0,60.4,29.98,North,5,4.6,4.6,85,0.00,CLR,,0.00,0.0,WeatherDisplay:10.37,2013-04-05 13:55:00,
2013-04-05 04:00:00,65.1,60.5,29.98,NNE,28,3.5,3.5,85,0.00,CLR,,0.00,0.0,WeatherDisplay:10.37,2013-04-05 14:00:00,
2013-04-05 04:05:00,65.0,60.4,29.98,NNE,13,3.5,3.5,85,0.00,CLR,,0.00,0.0,WeatherDisplay:10.37,2013-04-05 14:05:00,
2013-04-05 04:10:00,65.0,60.4,29.98,ENE,62,4.6,4.6,85,0.00,CLR,,0.00,0.0,WeatherDisplay:10.37,2013-04-05 14:10:00,
2013-04-05 04:15:00,65.0,60.4,29.98,NE,44,3.5,3.5,85,0.00,CLR,,0.00,0.0,WeatherDisplay:10.37,2013-04-05 14:15:00,
2013-04-05 04:20:00,65.0,60.4,29.98,NE,37,3.5,3.5,85,0.00,CLR,,0.00,0.0,WeatherDisplay:10.37,2013-04-05 14:20:00,
2013-04-05 04:25:00,65.1,60.5,29.98,NE,38,2.3,2.3,85,0.00,CLR,,0.00,0.0,WeatherDisplay:10.37,2013-04-05 14:25:00,
2013-04-05 04:30:00,65.1,60.5,29.99,NE,56,4.0,4.0,85,0.00,CLR,,0.00,0.0,WeatherDisplay:10.37,2013-04-05 14:30:00,
2013-04-05 04:36:00,65.2,60.6,29.99,North,360,5.8,5.8,85,0.00,CLR,,0.00,0.0,WeatherDisplay:10.37,2013-04-05 14:36:00,
2013-04-05 04:41:00,65.2,60.6,29.99,NNW,344,5.0,5.0,85,0.00,CLR,,0.00,0.0,WeatherDisplay:10.37,2013-04-05 14:41:00,
2013-04-05 04:46:00,65.3,60.7,29.99,ENE,65,4.0,4.0,85,0.00,CLR,,0.00,0.0,WeatherDisplay:10.37,2013-04-05 14:46:00,
2013-04-05 04:52:00,65.3,60.3,29.99,NNE,33,5.0,5.0,84,0.00,CLR,,0.00,0.0,WeatherDisplay:10.37,2013-04-05 14:52:00,
2013-04-05 04:57:00,65.4,60.4,29.99,NE,56,4.6,4.6,84,0.00,CLR,,0.00,0.0,WeatherDisplay:10.37,2013-04-05 14:57:00,
2013-04-05 05:02:00,65.4,60.4,29.99,NNE,24,4.6,4.6,84,0.00,CLR,,0.00,0.0,WeatherDisplay:10.37,2013-04-05 15:02:00,
2013-04-05 05:07:00,65.3,60.3,30.00,NE,39,3.5,3.5,84,0.00,CLR,,0.00,0.0,WeatherDisplay:10.37,2013-04-05 15:07:00,
2013-04-05 05:12:00,65.3,60.3,30.00,NNE,16,4.6,4.6,84,0.00,CLR,,0.00,0.0,WeatherDisplay:10.37,2013-04-05 15:12:00,
2013-04-05 05:17:00,65.2,60.2,30.00,ENE,61,2.0,2.0,84,0.00,CLR,,0.00,0.0,WeatherDisplay:10.37,2013-04-05 15:17:00,
2013-04-05 05:22:00,65.1,60.1,30.00,North,350,3.5,3.5,84,0.00,CLR,,0.00,0.0,WeatherDisplay:10.37,2013-04-05 15:22:00,
2013-04-05 05:27:00,65.0,60.0,30.00,North,351,3.5,3.5,84,0.00,CLR,,0.00,0.0,WeatherDisplay:10.37,2013-04-05 15:27:00,
2013-04-05 05:32:00,64.8,59.9,30.00,NNW,336,3.5,3.5,84,0.00,CLR,,0.00,0.0,WeatherDisplay:10.37,2013-04-05 15:32:00,
2013-04-05 05:37:00,64.6,59.7,30.00,North,5,1.1,1.1,84,0.00,CLR,,0.00,0.0,WeatherDisplay:10.37,2013-04-05 15:37:00,
2013-04-05 05:42:00,64.5,59.9,30.00,NNW,340,2.3,2.3,85,0.00,CLR,,0.00,0.0,WeatherDisplay:10.37,2013-04-05 15:42:00,
2013-04-05 05:47:00,64.4,59.8,30.00,NNW,334,3.5,3.5,85,0.00,CLR,,0.00,0.0,WeatherDisplay:10.37,2013-04-05 15:47:00,
2013-04-05 05:52:00,64.2,59.6,30.00,NNW,338,3.5,3.5,85,0.00,CLR,,0.00,0.0,WeatherDisplay:10.37,2013-04-05 15:52:00,
2013-04-05 05:57:00,64.1,59.5,30.00,North,355,3.5,3.5,85,0.00,CLR,,0.00,0.0,WeatherDisplay:10.37,2013-04-05 15:57:00,
2013-04-05 06:02:00,64.0,59.7,30.01,North,355,3.5,3.5,86,0.00,CLR,,0.00,0.0,WeatherDisplay:10.37,2013-04-05 16:02:00,
2013-04-05 06:07:00,64.1,59.8,30.01,NNE,32,2.3,2.3,86,0.00,CLR,,0.00,0.0,WeatherDisplay:10.37,2013-04-05 16:07:00,
2013-04-05 06:13:00,64.1,59.8,30.01,NNW,348,4.6,4.6,86,0.00,CLR,,0.00,0.0,WeatherDisplay:10.37,2013-04-05 16:13:00,
2013-04-05 06:18:00,64.1,59.8,30.01,NNE,32,2.3,2.3,86,0.00,CLR,,0.00,5.0,WeatherDisplay:10.37,2013-04-05 16:18:00,
2013-04-05 06:23:00,64.0,59.7,30.01,NNW,344,3.5,3.5,86,0.00,CLR,,0.00,7.0,WeatherDisplay:10.37,2013-04-05 16:23:00,
2013-04-05 06:28:00,63.9,59.6,30.01,NNE,27,4.6,4.6,86,0.00,CLR,,0.00,12.0,WeatherDisplay:10.37,2013-04-05 16:28:00,
2013-04-05 06:33:00,63.9,59.6,30.02,NNW,345,2.3,2.3,86,0.00,CLR,,0.00,19.0,WeatherDisplay:10.37,2013-04-05 16:33:00,
2013-04-05 06:38:00,63.9,59.6,30.02,NNE,31,3.5,3.5,86,0.00,CLR,,0.00,25.0,WeatherDisplay:10.37,2013-04-05 16:38:00,
2013-04-05 06:43:00,64.1,59.8,30.02,NNE,17,3.5,3.5,86,0.00,CLR,,0.00,33.0,WeatherDisplay:10.37,2013-04-05 16:43:00,
2013-04-05 06:48:00,64.2,60.2,30.02,NE,44,3.5,3.5,87,0.00,CLR,,0.00,42.0,WeatherDisplay:10.37,2013-04-05 16:48:00,
2013-04-05 06:53:00,64.3,60.3,30.02,NNE,15,3.5,3.5,87,0.00,FEW,,0.00,47.0,WeatherDisplay:10.37,2013-04-05 16:53:00,
2013-04-05 06:58:00,64.5,60.2,30.03,NNE,28,4.0,4.0,86,0.00,FEW,,0.00,54.0,WeatherDisplay:10.37,2013-04-05 16:58:00,
2013-04-05 07:03:00,64.9,60.6,30.03,ENE,76,6.9,6.9,86,0.00,FEW,,0.00,69.0,WeatherDisplay:10.37,2013-04-05 17:03:00,
2013-04-05 07:08:00,65.2,60.9,30.03,NE,40,3.5,3.5,86,0.00,CLR,,0.00,84.0,WeatherDisplay:10.37,2013-04-05 17:08:00,
2013-04-05 07:13:00,65.6,61.0,30.04,ENE,76,6.9,6.9,85,0.00,CLR,,0.00,91.0,WeatherDisplay:10.37,2013-04-05 17:13:00,
2013-04-05 07:18:00,65.9,60.9,30.04,NE,44,4.6,4.6,84,0.00,FEW,,0.00,95.0,WeatherDisplay:10.37,2013-04-05 17:18:00,
2013-04-05 07:23:00,66.2,61.2,30.04,North,5,3.5,3.5,84,0.00,FEW,,0.00,102.0,WeatherDisplay:10.37,2013-04-05 17:23:00,
2013-04-05 07:28:00,66.5,61.5,30.04,NE,39,3.5,3.5,84,0.00,CLR,,0.00,155.0,WeatherDisplay:10.37,2013-04-05 17:28:00,
2013-04-05 07:33:00,66.7,61.4,30.04,ENE,61,3.5,3.5,83,0.00,CLR,,0.00,218.0,WeatherDisplay:10.37,2013-04-05 17:33:00,
2013-04-05 07:38:00,67.1,61.8,30.04,NE,41,4.6,4.6,83,0.00,CLR,,0.00,216.0,WeatherDisplay:10.37,2013-04-05 17:38:00,
2013-04-05 07:43:00,67.5,61.8,30.04,NNE,17,5.0,5.0,82,0.00,CLR,,0.00,250.0,WeatherDisplay:10.37,2013-04-05 17:43:00,
2013-04-05 07:48:00,67.9,61.9,30.04,NE,42,3.5,3.5,81,0.00,CLR,,0.00,267.0,WeatherDisplay:10.37,2013-04-05 17:48:00,
2013-04-05 07:53:00,68.2,62.1,30.05,NE,42,6.9,6.9,81,0.00,CLR,,0.00,279.0,WeatherDisplay:10.37,2013-04-05 17:53:00,
2013-04-05 07:58:00,68.5,61.7,30.05,ENE,58,9.2,9.2,79,0.00,CLR,,0.00,301.0,WeatherDisplay:10.37,2013-04-05 17:58:00,
2013-04-05 08:03:00,68.8,61.7,30.05,North,5,8.1,8.1,78,0.00,CLR,,0.00,320.0,WeatherDisplay:10.37,2013-04-05 18:03:00,
2013-04-05 08:08:00,69.2,62.0,30.05,ENE,74,5.8,5.8,78,0.00,CLR,,0.00,343.0,WeatherDisplay:10.37,2013-04-05 18:08:00,
2013-04-05 08:13:00,69.5,62.3,30.05,North,5,4.6,4.6,78,0.00,CLR,,0.00,359.0,WeatherDisplay:10.37,2013-04-05 18:13:00,
2013-04-05 08:18:00,69.7,62.2,30.05,NE,42,5.8,5.8,77,0.00,CLR,,0.00,352.0,WeatherDisplay:10.37,2013-04-05 18:18:00,
2013-04-05 08:23:00,69.9,62.4,30.05,ENE,65,3.5,3.5,77,0.00,CLR,,0.00,325.0,WeatherDisplay:10.37,2013-04-05 18:23:00,
2013-04-05 08:28:00,70.0,62.1,30.06,East,81,6.0,6.0,76,0.00,CLR,,0.00,276.0,WeatherDisplay:10.37,2013-04-05 18:28:00,
2013-04-05 08:33:00,70.1,62.2,30.06,NE,48,3.5,3.5,76,0.00,CLR,,0.00,355.0,WeatherDisplay:10.37,2013-04-05 18:33:00,
2013-04-05 08:38:00,70.3,62.4,30.06,NNE,22,3.5,3.5,76,0.00,CLR,,0.00,424.0,WeatherDisplay:10.37,2013-04-05 18:38:00,
2013-04-05 08:43:00,70.5,62.2,30.06,NE,36,6.9,6.9,75,0.00,CLR,,0.00,445.0,WeatherDisplay:10.37,2013-04-05 18:43:00,
2013-04-05 08:48:00,70.7,62.4,30.06,NNE,14,8.1,8.1,75,0.00,CLR,,0.00,482.0,WeatherDisplay:10.37,2013-04-05 18:48:00,
2013-04-05 08:53:00,71.0,62.7,30.06,NNE,23,5.0,5.0,75,0.00,CLR,,0.00,508.0,WeatherDisplay:10.37,2013-04-05 18:53:00,
2013-04-05 08:58:00,71.3,62.6,30.06,ESE,106,6.9,6.9,74,0.00,CLR,,0.00,510.0,WeatherDisplay:10.37,2013-04-05 18:58:00,
2013-04-05 09:03:00,71.6,62.9,30.06,NNE,14,9.2,9.2,74,0.00,CLR,,0.00,489.0,WeatherDisplay:10.37,2013-04-05 19:03:00,
2013-04-05 09:08:00,72.0,62.9,30.06,East,92,8.1,8.1,73,0.00,CLR,,0.00,526.0,WeatherDisplay:10.37,2013-04-05 19:08:00,
2013-04-05 09:13:00,72.3,63.2,30.07,NE,44,4.6,4.6,73,0.00,CLR,,0.00,473.0,WeatherDisplay:10.37,2013-04-05 19:13:00,
2013-04-05 09:18:00,72.5,63.0,30.07,ENE,60,5.8,5.8,72,0.00,CLR,,0.00,480.0,WeatherDisplay:10.37,2013-04-05 19:18:00,
2013-04-05 09:23:00,72.7,63.1,30.07,ENE,57,4.6,4.6,72,0.00,CLR,,0.00,568.0,WeatherDisplay:10.37,2013-04-05 19:23:00,
2013-04-05 09:28:00,72.9,62.9,30.07,ENE,69,11.5,11.5,71,0.00,CLR,,0.00,652.0,WeatherDisplay:10.37,2013-04-05 19:28:00,
2013-04-05 09:33:00,73.0,63.0,30.07,NNE,18,3.5,3.5,71,0.00,CLR,,0.00,673.0,WeatherDisplay:10.37,2013-04-05 19:33:00,
2013-04-05 09:38:00,73.1,63.5,30.07,ENE,78,10.0,10.0,72,0.00,CLR,,0.00,731.0,WeatherDisplay:10.37,2013-04-05 19:38:00,
2013-04-05 09:43:00,73.3,63.3,30.07,North,9,6.9,6.9,71,0.00,CLR,,0.00,707.0,WeatherDisplay:10.37,2013-04-05 19:43:00,
2013-04-05 09:48:00,73.5,63.1,30.07,NNE,26,8.1,8.1,70,0.00,CLR,,0.00,628.0,WeatherDisplay:10.37,2013-04-05 19:48:00,
2013-04-05 09:53:00,73.8,63.4,30.07,ENE,65,9.0,9.0,70,0.00,CLR,,0.00,701.0,WeatherDisplay:10.37,2013-04-05 19:53:00,
2013-04-05 09:58:00,73.9,63.5,30.07,East,92,8.1,8.1,70,0.00,CLR,,0.00,768.0,WeatherDisplay:10.37,2013-04-05 19:58:00,
2013-04-05 10:03:00,74.0,63.2,30.07,ENE,59,5.8,5.8,69,0.00,CLR,,0.00,796.0,WeatherDisplay:10.37,2013-04-05 20:03:00,
2013-04-05 10:08:00,74.4,63.1,30.07,NE,52,6.9,6.9,68,0.00,CLR,,0.00,882.0,WeatherDisplay:10.37,2013-04-05 20:08:00,
2013-04-05 10:13:00,74.8,63.5,30.07,ENE,65,5.8,5.8,68,0.00,CLR,,0.00,798.0,WeatherDisplay:10.37,2013-04-05 20:13:00,
2013-04-05 10:18:00,75.1,63.4,30.07,ENE,76,9.2,9.2,67,0.00,CLR,,0.00,800.0,WeatherDisplay:10.37,2013-04-05 20:18:00,
2013-04-05 10:23:00,75.3,62.7,30.06,NE,34,8.1,8.1,65,0.00,CLR,,0.00,809.0,WeatherDisplay:10.37,2013-04-05 20:23:00,
2013-04-05 10:28:00,75.4,62.8,30.06,ENE,68,9.2,9.2,65,0.00,CLR,,0.00,809.0,WeatherDisplay:10.37,2013-04-05 20:28:00,
2013-04-05 10:33:00,75.6,62.6,30.06,East,84,6.9,6.9,64,0.00,CLR,,0.00,928.0,WeatherDisplay:10.37,2013-04-05 20:33:00,
2013-04-05 10:38:00,75.9,62.8,30.06,ESE,111,8.1,8.1,64,0.00,CLR,,0.00,935.0,WeatherDisplay:10.37,2013-04-05 20:38:00,
2013-04-05 10:43:00,76.0,62.5,30.06,East,99,8.1,8.1,63,0.00,SCT,,0.00,606.0,WeatherDisplay:10.37,2013-04-05 20:43:00,
2013-04-05 10:48:00,75.9,62.8,30.05,East,79,6.9,6.9,64,0.00,CLR,,0.00,933.0,WeatherDisplay:10.37,2013-04-05 20:48:00,
2013-04-05 10:53:00,75.8,62.3,30.06,NNE,20,5.8,5.8,63,0.00,BKN,,0.00,327.0,WeatherDisplay:10.37,2013-04-05 20:53:00,
2013-04-05 10:58:00,75.5,62.0,30.06,ESE,105,11.5,11.5,63,0.00,CLR,,0.00,911.0,WeatherDisplay:10.37,2013-04-05 20:58:00,
2013-04-05 11:04:00,75.4,61.9,30.06,ENE,74,8.1,8.1,63,0.00,CLR,,0.00,747.0,WeatherDisplay:10.37,2013-04-05 21:04:00,
2013-04-05 11:09:00,75.1,62.1,30.06,NNE,30,5.8,5.8,64,0.00,BKN,,0.00,297.0,WeatherDisplay:10.37,2013-04-05 21:09:00,
2013-04-05 11:14:00,74.7,62.1,30.06,NE,55,5.0,5.0,65,0.00,OVC,,0.00,272.0,WeatherDisplay:10.37,2013-04-05 21:14:00,
2013-04-05 11:19:00,74.5,62.0,30.05,ESE,105,8.1,8.1,65,0.00,BKN,,0.00,603.0,WeatherDisplay:10.37,2013-04-05 21:19:00,
2013-04-05 11:24:00,74.5,61.5,30.05,East,85,8.1,8.1,64,0.00,BKN,,0.00,304.0,WeatherDisplay:10.37,2013-04-05 21:24:00,
2013-04-05 11:29:00,74.6,62.1,30.05,SE,136,10.4,10.4,65,0.00,CLR,,0.00,1058.0,WeatherDisplay:10.37,2013-04-05 21:29:00,
2013-04-05 11:34:00,74.8,62.2,30.05,ENE,57,9.2,9.2,65,0.00,BKN,,0.00,378.0,WeatherDisplay:10.37,2013-04-05 21:34:00,
2013-04-05 11:40:00,75.1,62.5,30.05,ENE,59,3.0,9.0,65,0.00,FEW,,0.00,649.0,WeatherDisplay:10.37,2013-04-05 21:40:00,
2013-04-05 11:45:00,75.5,62.0,30.05,East,82,6.9,6.9,63,0.00,OVC,,0.00,283.0,WeatherDisplay:10.37,2013-04-05 21:45:00,
2013-04-05 11:50:00,75.3,61.8,30.05,ENE,59,3.5,3.5,63,0.00,BKN,,0.00,504.0,WeatherDisplay:10.37,2013-04-05 21:50:00,
2013-04-05 11:55:00,75.2,61.7,30.05,ENE,69,9.2,9.2,63,0.00,BKN,,0.00,309.0,WeatherDisplay:10.37,2013-04-05 21:55:00,
2013-04-05 12:00:00,75.1,62.1,30.05,SSE,156,5.0,5.0,64,0.00,BKN,,0.00,425.0,WeatherDisplay:10.37,2013-04-05 22:00:00,
2013-04-05 12:05:00,75.2,62.2,30.05,East,89,6.0,6.0,64,0.00,CLR,,0.00,902.0,WeatherDisplay:10.37,2013-04-05 22:05:00,
2013-04-05 12:10:00,75.3,61.8,30.04,ENE,69,11.5,11.5,63,0.00,CLR,,0.00,895.0,WeatherDisplay:10.37,2013-04-05 22:10:00,
2013-04-05 12:15:00,75.6,60.7,30.04,East,86,11.5,11.5,60,0.00,CLR,,0.00,740.0,WeatherDisplay:10.37,2013-04-05 22:15:00,
2013-04-05 12:20:00,76.0,61.6,30.03,SE,127,10.4,10.4,61,0.00,CLR,,0.00,826.0,WeatherDisplay:10.37,2013-04-05 22:20:00,
2013-04-05 12:25:00,76.2,61.8,30.03,North,9,11.5,11.5,61,0.00,CLR,,0.00,853.0,WeatherDisplay:10.37,2013-04-05 22:25:00,
2013-04-05 12:30:00,76.2,62.2,30.03,ENE,74,11.0,11.0,62,0.00,CLR,,0.00,431.0,WeatherDisplay:10.37,2013-04-05 22:30:00,
2013-04-05 12:35:00,76.2,62.7,30.03,SE,139,3.5,3.5,63,0.00,BKN,,0.00,457.0,WeatherDisplay:10.37,2013-04-05 22:35:00,
2013-04-05 12:40:00,76.3,61.9,30.03,ENE,70,9.2,9.2,61,0.00,CLR,,0.00,1030.0,WeatherDisplay:10.37,2013-04-05 22:40:00,
2013-04-05 12:45:00,76.6,62.6,30.03,ENE,68,6.9,6.9,62,0.00,CLR,,0.00,861.0,WeatherDisplay:10.37,2013-04-05 22:45:00,
2013-04-05 12:50:00,76.5,61.1,30.03,East,86,11.5,11.5,59,0.00,CLR,,0.00,847.0,WeatherDisplay:10.37,2013-04-05 22:50:00,
2013-04-05 12:55:00,76.4,62.0,30.03,ESE,121,9.0,9.0,61,0.00,CLR,,0.00,986.0,WeatherDisplay:10.37,2013-04-05 22:55:00,
2013-04-05 13:00:00,76.6,62.6,30.02,ENE,67,6.9,6.9,62,0.00,CLR,,0.00,1025.0,WeatherDisplay:10.37,2013-04-05 23:00:00,
2013-04-05 13:05:00,77.2,62.2,30.02,ESE,111,7.0,7.0,60,0.00,CLR,,0.00,1216.0,WeatherDisplay:10.37,2013-04-05 23:05:00,
2013-04-05 13:10:00,77.4,61.9,30.02,NNE,16,6.9,6.9,59,0.00,CLR,,0.00,1209.0,WeatherDisplay:10.37,2013-04-05 23:10:00,
2013-04-05 13:15:00,77.7,61.3,30.02,ENE,65,11.5,11.5,57,0.00,CLR,,0.00,413.0,WeatherDisplay:10.37,2013-04-05 23:15:00,
2013-04-05 13:20:00,77.8,61.8,30.02,ESE,113,9.2,9.2,58,0.00,BKN,,0.00,527.0,WeatherDisplay:10.37,2013-04-05 23:20:00,
2013-04-05 13:25:00,77.8,62.3,30.01,ENE,76,5.8,5.8,59,0.00,BKN,,0.00,364.0,WeatherDisplay:10.37,2013-04-05 23:25:00,
2013-04-05 13:30:00,77.5,62.0,30.01,ESE,118,9.0,9.0,59,0.00,BKN,,0.00,373.0,WeatherDisplay:10.37,2013-04-05 23:30:00,
2013-04-05 13:35:00,77.2,62.7,30.01,SE,132,8.1,8.1,61,0.00,BKN,,0.00,452.0,WeatherDisplay:10.37,2013-04-05 23:35:00,
2013-04-05 13:40:00,77.0,61.6,30.01,SSE,155,3.5,3.5,59,0.00,BKN,,0.00,264.0,WeatherDisplay:10.37,2013-04-05 23:40:00,
2013-04-05 13:45:00,77.1,62.6,30.01,SE,130,9.2,9.2,61,0.00,CLR,,0.00,847.0,WeatherDisplay:10.37,2013-04-05 23:45:00,
2013-04-05 13:50:00,77.1,62.6,30.01,ESE,111,6.9,6.9,61,0.00,SCT,,0.00,629.0,WeatherDisplay:10.37,2013-04-05 23:50:00,
2013-04-05 13:55:00,76.8,62.3,30.01,ESE,119,6.9,6.9,61,0.00,CLR,,0.00,921.0,WeatherDisplay:10.37,2013-04-05 23:55:00,
2013-04-05 14:00:00,76.6,62.6,30.00,SE,132,9.2,9.2,62,0.00,SCT,,0.00,434.0,WeatherDisplay:10.37,2013-04-06 00:00:00,
2013-04-05 14:05:00,76.6,63.1,30.00,ESE,121,8.0,8.0,63,0.00,BKN,,0.00,417.0,WeatherDisplay:10.37,2013-04-06 00:05:00,
2013-04-05 14:10:00,76.7,64.0,30.00,ESE,119,8.1,8.1,65,0.00,BKN,,0.00,434.0,WeatherDisplay:10.37,2013-04-06 00:10:00,
2013-04-05 14:15:00,76.6,63.5,30.00,East,90,3.5,3.5,64,0.00,SCT,,0.00,487.0,WeatherDisplay:10.37,2013-04-06 00:15:00,
2013-04-05 14:21:00,76.6,63.5,30.00,East,96,11.5,11.5,64,0.00,OVC,,0.00,315.0,WeatherDisplay:10.37,2013-04-06 00:21:00,
2013-04-05 14:26:00,76.7,64.0,29.99,ENE,71,4.6,4.6,65,0.00,CLR,,0.00,348.0,WeatherDisplay:10.37,2013-04-06 00:26:00,
2013-04-05 14:31:00,76.8,63.2,29.99,NE,53,6.9,6.9,63,0.00,CLR,,0.00,1035.0,WeatherDisplay:10.37,2013-04-06 00:31:00,
2013-04-05 14:36:00,77.0,63.9,29.99,ENE,59,8.0,8.0,64,0.00,CLR,,0.00,1005.0,WeatherDisplay:10.37,2013-04-06 00:36:00,
2013-04-05 14:41:00,77.1,63.5,29.99,ENE,74,5.0,5.0,63,0.00,OVC,,0.00,213.0,WeatherDisplay:10.37,2013-04-06 00:41:00,
2013-04-05 14:46:00,76.8,63.2,29.98,ENE,65,8.1,8.1,63,0.00,OVC,,0.00,232.0,WeatherDisplay:10.37,2013-04-06 00:46:00,
2013-04-05 14:51:00,76.5,63.0,29.98,East,92,5.8,5.8,63,0.00,BKN,,0.00,265.0,WeatherDisplay:10.37,2013-04-06 00:51:00,
2013-04-05 14:56:00,76.3,63.2,29.98,SE,144,8.1,8.1,64,0.00,BKN,,0.00,976.0,WeatherDisplay:10.37,2013-04-06 00:56:00,
2013-04-05 15:01:00,76.5,63.4,29.99,NE,55,3.5,3.5,64,0.00,CLR,,0.00,896.0,WeatherDisplay:10.37,2013-04-06 01:01:00,
2013-04-05 15:06:00,76.9,63.3,29.98,ESE,119,4.6,4.6,63,0.00,CLR,,0.00,851.0,WeatherDisplay:10.37,2013-04-06 01:06:00,
2013-04-05 15:11:00,77.2,64.1,29.99,East,84,6.0,6.0,64,0.00,CLR,,0.00,828.0,WeatherDisplay:10.37,2013-04-06 01:11:00,
2013-04-05 15:16:00,77.3,63.3,29.99,NE,44,8.1,8.1,62,0.00,CLR,,0.00,805.0,WeatherDisplay:10.37,2013-04-06 01:16:00,
2013-04-05 15:21:00,77.4,63.4,29.99,ESE,105,6.0,6.0,62,0.00,CLR,,0.00,837.0,WeatherDisplay:10.37,2013-04-06 01:21:00,
2013-04-05 15:27:00,77.4,62.9,29.98,SE,127,8.1,8.1,61,0.00,BKN,,0.00,278.0,WeatherDisplay:10.37,2013-04-06 01:27:00,
2013-04-05 15:32:00,77.4,63.4,29.99,ESE,120,3.5,3.5,62,0.00,CLR,,0.00,701.0,WeatherDisplay:10.37,2013-04-06 01:32:00,
2013-04-05 15:37:00,77.5,63.0,29.98,WNW,284,6.9,6.9,61,0.00,SCT,,0.00,359.0,WeatherDisplay:10.37,2013-04-06 01:37:00,
2013-04-05 15:42:00,77.5,63.0,29.99,ESE,122,8.1,8.1,61,0.00,SCT,,0.00,315.0,WeatherDisplay:10.37,2013-04-06 01:42:00,
2013-04-05 15:47:00,77.3,63.3,29.98,East,79,5.0,5.0,62,0.00,CLR,,0.00,591.0,WeatherDisplay:10.37,2013-04-06 01:47:00,
2013-04-05 15:52:00,77.1,62.6,29.98,East,92,4.6,4.6,61,0.00,CLR,,0.00,531.0,WeatherDisplay:10.37,2013-04-06 01:52:00,
2013-04-05 15:57:00,77.0,63.0,29.98,East,98,4.6,4.6,62,0.00,CLR,,0.00,582.0,WeatherDisplay:10.37,2013-04-06 01:57:00,
2013-04-05 16:02:00,77.1,63.1,29.98,ESE,114,4.6,5.1,62,0.00,CLR,,0.00,638.0,WeatherDisplay:10.37,2013-04-06 02:02:00,
2013-04-05 16:07:00,77.1,63.1,29.98,ESE,113,4.6,4.6,62,0.00,CLR,,0.00,642.0,WeatherDisplay:10.37,2013-04-06 02:07:00,
2013-04-05 16:12:00,77.1,62.6,29.99,NE,43,6.9,6.9,61,0.00,CLR,,0.00,378.0,WeatherDisplay:10.37,2013-04-06 02:12:00,
2013-04-05 16:17:00,76.8,63.2,29.99,SE,126,8.1,8.1,63,0.00,BKN,,0.00,211.0,WeatherDisplay:10.37,2013-04-06 02:17:00,
2013-04-05 16:22:00,76.4,63.3,29.98,ESE,115,5.8,5.8,64,0.00,SCT,,0.00,338.0,WeatherDisplay:10.37,2013-04-06 02:22:00,
2013-04-05 16:27:00,76.1,63.0,29.98,ESE,102,6.9,6.9,64,0.00,FEW,,0.00,234.0,WeatherDisplay:10.37,2013-04-06 02:27:00,
2013-04-05 16:33:00,76.0,63.4,29.98,ENE,78,5.8,5.8,65,0.00,SCT,,0.00,269.0,WeatherDisplay:10.37,2013-04-06 02:33:00,
2013-04-05 16:38:00,75.9,63.3,29.99,ENE,71,4.6,4.6,65,0.00,SCT,,0.00,244.0,WeatherDisplay:10.37,2013-04-06 02:38:00,
2013-04-05 16:43:00,75.7,63.5,29.99,NNE,33,6.9,6.9,66,0.00,SCT,,0.00,211.0,WeatherDisplay:10.37,2013-04-06 02:43:00,
2013-04-05 16:48:00,75.5,63.8,29.99,NE,52,3.5,3.5,67,0.00,SCT,,0.00,211.0,WeatherDisplay:10.37,2013-04-06 02:48:00,
2013-04-05 16:53:00,75.3,63.6,29.99,ENE,74,6.0,6.0,67,0.00,SCT,,0.00,186.0,WeatherDisplay:10.37,2013-04-06 02:53:00,
2013-04-05 16:58:00,74.9,63.2,29.99,NE,45,6.9,6.9,67,0.00,BKN,,0.00,144.0,WeatherDisplay:10.37,2013-04-06 02:58:00,
2013-04-05 17:03:00,74.8,63.1,29.99,North,5,4.6,4.6,67,0.00,SCT,,0.00,160.0,WeatherDisplay:10.37,2013-04-06 03:03:00,
2013-04-05 17:08:00,74.7,63.4,29.99,ENE,78,5.8,5.8,68,0.00,BKN,,0.00,146.0,WeatherDisplay:10.37,2013-04-06 03:08:00,
2013-04-05 17:13:00,74.6,63.3,30.00,ENE,63,4.6,4.6,68,0.00,FEW,,0.00,178.0,WeatherDisplay:10.37,2013-04-06 03:13:00,
2013-04-05 17:18:00,74.4,63.1,30.00,NE,42,4.6,4.6,68,0.00,FEW,,0.00,169.0,WeatherDisplay:10.37,2013-04-06 03:18:00,
2013-04-05 17:23:00,74.3,63.5,29.99,NE,48,5.0,5.0,69,0.00,FEW,,0.00,163.0,WeatherDisplay:10.37,2013-04-06 03:23:00,
2013-04-05 17:28:00,74.0,63.6,30.00,NE,46,3.5,3.5,70,0.00,FEW,,0.00,149.0,WeatherDisplay:10.37,2013-04-06 03:28:00,
2013-04-05 17:33:00,73.7,63.3,30.00,ENE,65,5.8,5.8,70,0.00,SCT,,0.00,132.0,WeatherDisplay:10.37,2013-04-06 03:33:00,
2013-04-05 17:38:00,73.3,63.3,30.00,NE,53,4.0,4.0,71,0.00,CLR,,0.00,153.0,WeatherDisplay:10.37,2013-04-06 03:38:00,
2013-04-05 17:43:00,72.9,63.3,30.00,ENE,61,8.1,8.1,72,0.00,CLR,,0.00,139.0,WeatherDisplay:10.37,2013-04-06 03:43:00,
2013-04-05 17:48:00,72.4,63.3,30.00,ENE,58,6.9,6.9,73,0.00,FEW,,0.00,107.0,WeatherDisplay:10.37,2013-04-06 03:48:00,
2013-04-05 17:53:00,72.0,63.3,30.00,NE,49,6.9,6.9,74,0.00,CLR,,0.00,104.0,WeatherDisplay:10.37,2013-04-06 03:53:00,
2013-04-05 17:58:00,71.8,63.4,30.01,NE,49,3.5,3.5,75,0.00,CLR,,0.00,91.0,WeatherDisplay:10.37,2013-04-06 03:58:00,
2013-04-05 18:00:00,71.7,63.4,30.01,ENE,57,8.1,8.1,75,0.00,CLR,,0.00,90.0,WeatherDisplay:10.37,2013-04-06 04:00:00,
2013-04-05 18:05:00,71.6,63.3,30.01,ENE,76,5.8,5.8,75,0.00,CLR,,0.00,83.0,WeatherDisplay:10.37,2013-04-06 04:05:00,
2013-04-05 18:10:00,71.4,63.1,30.01,NE,53,4.6,4.6,75,0.00,CLR,,0.00,93.0,WeatherDisplay:10.37,2013-04-06 04:10:00,
2013-04-05 18:15:00,71.2,63.2,30.01,NE,52,10.4,10.4,76,0.00,CLR,,0.00,98.0,WeatherDisplay:10.37,2013-04-06 04:15:00,
2013-04-05 18:21:00,71.1,63.1,30.01,NNE,28,4.6,4.6,76,0.00,CLR,,0.00,76.0,WeatherDisplay:10.37,2013-04-06 04:21:00,
2013-04-05 18:26:00,71.1,63.1,30.01,North,11,4.0,4.0,76,0.00,CLR,,0.00,62.0,WeatherDisplay:10.37,2013-04-06 04:26:00,
2013-04-05 18:31:00,71.0,63.1,30.01,NE,44,4.6,4.6,76,0.00,CLR,,0.00,46.0,WeatherDisplay:10.37,2013-04-06 04:31:00,
2013-04-05 18:36:00,70.8,62.9,30.02,North,5,3.5,4.7,76,0.00,CLR,,0.00,32.0,WeatherDisplay:10.37,2013-04-06 04:36:00,
2013-04-05 18:41:00,70.7,62.8,30.01,North,11,6.9,6.9,76,0.00,CLR,,0.00,19.0,WeatherDisplay:10.37,2013-04-06 04:41:00,
2013-04-05 18:47:00,70.5,62.6,30.02,North,355,6.9,6.9,76,0.00,CLR,,0.00,14.0,WeatherDisplay:10.37,2013-04-06 04:47:00,
2013-04-05 18:52:00,70.3,62.7,30.02,NE,44,4.6,4.6,77,0.00,CLR,,0.00,9.0,WeatherDisplay:10.37,2013-04-06 04:52:00,
2013-04-05 18:58:00,70.2,62.6,30.02,ENE,59,6.9,6.9,77,0.00,CLR,,0.00,0.0,WeatherDisplay:10.37,2013-04-06 04:58:00,
2013-04-05 19:03:00,70.1,62.6,30.02,NE,49,3.5,3.5,77,0.00,CLR,,0.00,0.0,WeatherDisplay:10.37,2013-04-06 05:03:00,
2013-04-05 19:08:00,70.1,62.6,30.03,ENE,73,4.0,4.0,77,0.00,CLR,,0.00,0.0,WeatherDisplay:10.37,2013-04-06 05:08:00,
2013-04-05 19:13:00,69.9,62.4,30.03,NE,42,5.8,5.8,77,0.00,CLR,,0.00,0.0,WeatherDisplay:10.37,2013-04-06 05:13:00,
2013-04-05 19:18:00,69.8,62.3,30.03,ENE,67,5.8,5.8,77,0.00,CLR,,0.00,0.0,WeatherDisplay:10.37,2013-04-06 05:18:00,
2013-04-05 19:23:00,69.7,62.5,30.04,NNE,32,3.5,3.5,78,0.00,CLR,,0.00,0.0,WeatherDisplay:10.37,2013-04-06 05:23:00,
2013-04-05 19:28:00,69.6,62.4,30.04,NE,54,3.5,3.5,78,0.00,CLR,,0.00,0.0,WeatherDisplay:10.37,2013-04-06 05:28:00,
2013-04-05 19:33:00,69.5,62.3,30.04,ENE,63,4.0,4.0,78,0.00,CLR,,0.00,0.0,WeatherDisplay:10.37,2013-04-06 05:33:00,
2013-04-05 19:38:00,69.4,62.2,30.05,North,355,6.0,6.0,78,0.00,CLR,,0.00,0.0,WeatherDisplay:10.37,2013-04-06 05:38:00,
2013-04-05 19:43:00,69.4,62.2,30.05,NE,45,2.3,2.3,78,0.00,CLR,,0.00,0.0,WeatherDisplay:10.37,2013-04-06 05:43:00,
2013-04-05 19:48:00,69.3,62.1,30.05,NNE,23,3.5,3.5,78,0.00,CLR,,0.00,0.0,WeatherDisplay:10.37,2013-04-06 05:48:00,
2013-04-05 19:53:00,69.2,62.0,30.05,ENE,69,4.6,4.6,78,0.00,CLR,,0.00,0.0,WeatherDisplay:10.37,2013-04-06 05:53:00,
2013-04-05 19:58:00,69.2,62.0,30.05,North,5,5.0,5.0,78,0.00,CLR,,0.00,0.0,WeatherDisplay:10.37,2013-04-06 05:58:00,
2013-04-05 20:03:00,69.1,61.9,30.05,NE,55,3.5,3.5,78,0.00,CLR,,0.00,0.0,WeatherDisplay:10.37,2013-04-06 06:03:00,
2013-04-05 20:08:00,69.1,61.9,30.06,NE,49,4.6,4.6,78,0.00,CLR,,0.00,0.0,WeatherDisplay:10.37,2013-04-06 06:08:00,
2013-04-05 20:13:00,69.0,61.9,30.06,NNE,31,6.9,6.9,78,0.00,CLR,,0.00,0.0,WeatherDisplay:10.37,2013-04-06 06:13:00,
2013-04-05 20:18:00,69.0,62.2,30.06,NNE,31,8.1,8.1,79,0.00,CLR,,0.00,0.0,WeatherDisplay:10.37,2013-04-06 06:18:00,
2013-04-05 20:23:00,68.9,62.1,30.06,ENE,57,3.5,3.5,79,0.00,CLR,,0.00,0.0,WeatherDisplay:10.37,2013-04-06 06:23:00,
2013-04-05 20:28:00,68.8,62.0,30.06,NNE,28,6.9,6.9,79,0.00,CLR,,0.00,0.0,WeatherDisplay:10.37,2013-04-06 06:28:00,
2013-04-05 20:33:00,68.7,61.9,30.06,ENE,70,6.9,6.9,79,0.00,CLR,,0.00,0.0,WeatherDisplay:10.37,2013-04-06 06:33:00,
2013-04-05 20:38:00,68.8,62.4,30.07,ENE,60,4.6,4.6,80,0.00,CLR,,0.00,0.0,WeatherDisplay:10.37,2013-04-06 06:38:00,
2013-04-05 20:43:00,68.8,62.0,30.07,ENE,71,3.5,3.5,79,0.00,CLR,,0.00,0.0,WeatherDisplay:10.37,2013-04-06 06:43:00,
2013-04-05 20:48:00,68.7,61.9,30.07,NE,37,4.6,4.6,79,0.00,CLR,,0.00,0.0,WeatherDisplay:10.37,2013-04-06 06:48:00,
2013-04-05 20:53:00,68.6,61.8,30.07,NE,54,4.0,4.0,79,0.00,CLR,,0.00,0.0,WeatherDisplay:10.37,2013-04-06 06:53:00,
2013-04-05 20:58:00,68.6,61.8,30.07,ENE,63,3.5,3.5,79,0.00,CLR,,0.00,0.0,WeatherDisplay:10.37,2013-04-06 06:58:00,
2013-04-05 21:03:00,68.6,61.8,30.07,North,355,4.0,4.0,79,0.00,CLR,,0.00,0.0,WeatherDisplay:10.37,2013-04-06 07:03:00,
2013-04-05 21:08:00,68.6,61.8,30.07,ENE,67,5.8,5.8,79,0.00,CLR,,0.00,0.0,WeatherDisplay:10.37,2013-04-06 07:08:00,
2013-04-05 21:13:00,68.7,62.3,30.07,NE,55,4.0,4.0,80,0.00,CLR,,0.00,0.0,WeatherDisplay:10.37,2013-04-06 07:13:00,
2013-04-05 21:18:00,68.7,62.3,30.08,NE,37,3.5,3.5,80,0.00,CLR,,0.00,0.0,WeatherDisplay:10.37,2013-04-06 07:18:00,
2013-04-05 21:23:00,68.6,62.2,30.08,NE,35,3.5,3.5,80,0.00,CLR,,0.00,0.0,WeatherDisplay:10.37,2013-04-06 07:23:00,
2013-04-05 21:29:00,68.7,62.3,30.08,NNE,23,3.5,3.5,80,0.00,CLR,,0.00,0.0,WeatherDisplay:10.37,2013-04-06 07:29:00,
2013-04-05 21:34:00,68.6,62.2,30.08,North,9,5.0,5.0,80,0.00,CLR,,0.00,0.0,WeatherDisplay:10.37,2013-04-06 07:34:00,
2013-04-05 21:39:00,68.6,62.5,30.08,NNE,21,8.1,8.1,81,0.00,CLR,,0.00,0.0,WeatherDisplay:10.37,2013-04-06 07:39:00,
2013-04-05 21:45:00,68.7,62.6,30.08,North,5,3.5,3.5,81,0.00,CLR,,0.00,0.0,WeatherDisplay:10.37,2013-04-06 07:45:00,
2013-04-05 21:50:00,68.7,62.6,30.08,North,355,5.8,5.8,81,0.00,CLR,,0.00,0.0,WeatherDisplay:10.37,2013-04-06 07:50:00,
2013-04-05 21:55:00,68.7,62.6,30.08,NE,55,5.8,5.8,81,0.00,CLR,,0.00,0.0,WeatherDisplay:10.37,2013-04-06 07:55:00,
2013-04-05 22:00:00,68.8,62.7,30.08,ENE,58,8.1,8.1,81,0.00,CLR,,0.00,0.0,WeatherDisplay:10.37,2013-04-06 08:00:00,
2013-04-05 22:05:00,68.8,62.7,30.08,NNE,16,4.6,4.6,81,0.00,CLR,,0.00,0.0,WeatherDisplay:10.37,2013-04-06 08:05:00,
2013-04-05 22:10:00,68.8,62.7,30.08,NE,42,6.9,6.9,81,0.00,CLR,,0.00,0.0,WeatherDisplay:10.37,2013-04-06 08:10:00,
2013-04-05 22:15:00,68.8,63.1,30.08,NE,41,6.9,6.9,82,0.00,CLR,,0.00,0.0,WeatherDisplay:10.37,2013-04-06 08:15:00,
2013-04-05 22:20:00,68.9,63.2,30.08,NNE,24,6.9,6.9,82,0.00,CLR,,0.00,0.0,WeatherDisplay:10.37,2013-04-06 08:20:00,
2013-04-05 22:25:00,68.9,63.2,30.08,NE,49,4.6,4.6,82,0.00,CLR,,0.00,0.0,WeatherDisplay:10.37,2013-04-06 08:25:00,
2013-04-05 22:30:00,68.9,63.2,30.09,North,355,4.6,4.6,82,0.00,CLR,,0.00,0.0,WeatherDisplay:10.37,2013-04-06 08:30:00,
2013-04-05 22:35:00,68.9,63.5,30.08,NE,34,6.9,6.9,83,0.00,CLR,,0.00,0.0,WeatherDisplay:10.37,2013-04-06 08:35:00,
2013-04-05 22:40:00,68.8,63.4,30.09,NNE,32,6.9,6.9,83,0.00,CLR,,0.00,0.0,WeatherDisplay:10.37,2013-04-06 08:40:00,
2013-04-05 22:45:00,68.8,63.4,30.09,NNW,346,6.9,6.9,83,0.00,CLR,,0.00,0.0,WeatherDisplay:10.37,2013-04-06 08:45:00,
2013-04-05 22:50:00,68.8,63.8,30.09,East,90,5.8,5.8,84,0.00,CLR,,0.00,0.0,WeatherDisplay:10.37,2013-04-06 08:50:00,
2013-04-05 22:55:00,68.8,63.8,30.09,NNW,346,3.5,3.5,84,0.00,CLR,,0.00,0.0,WeatherDisplay:10.37,2013-04-06 08:55:00,
2013-04-05 23:00:00,68.8,63.8,30.09,North,11,5.8,5.8,84,0.00,CLR,,0.00,0.0,WeatherDisplay:10.37,2013-04-06 09:00:00,
2013-04-05 23:05:00,68.9,63.9,30.09,NNW,339,4.0,4.0,84,0.00,CLR,,0.00,0.0,WeatherDisplay:10.37,2013-04-06 09:05:00,
2013-04-05 23:10:00,68.9,64.2,30.08,NNE,30,5.8,5.8,85,0.00,CLR,,0.00,0.0,WeatherDisplay:10.37,2013-04-06 09:10:00,
2013-04-05 23:15:00,68.9,64.2,30.09,NNE,21,8.1,8.1,85,0.00,CLR,,0.00,0.0,WeatherDisplay:10.37,2013-04-06 09:15:00,
2013-04-05 23:20:00,68.9,64.2,30.09,NNE,19,5.8,5.8,85,0.00,CLR,,0.00,0.0,WeatherDisplay:10.37,2013-04-06 09:20:00,
2013-04-05 23:25:00,68.8,64.1,30.08,North,5,4.6,4.6,85,0.00,CLR,,0.00,0.0,WeatherDisplay:10.37,2013-04-06 09:25:00,
2013-04-05 23:30:00,68.8,64.4,30.08,ENE,70,5.0,5.0,86,0.00,CLR,,0.00,0.0,WeatherDisplay:10.37,2013-04-06 09:30:00,
2013-04-05 23:36:00,68.8,64.4,30.08,North,5,4.6,4.8,86,0.00,CLR,,0.00,0.0,WeatherDisplay:10.37,2013-04-06 09:36:00,
2013-04-05 23:41:00,68.8,64.4,30.08,NNW,340,7.0,7.0,86,0.00,CLR,,0.00,0.0,WeatherDisplay:10.37,2013-04-06 09:41:00,
2013-04-05 23:46:00,68.8,64.4,30.08,North,5,6.9,6.9,86,0.00,CLR,,0.00,0.0,WeatherDisplay:10.37,2013-04-06 09:46:00,
2013-04-05 23:51:00,68.8,64.4,30.08,NE,36,5.0,5.0,86,0.00,CLR,,0.00,0.0,WeatherDisplay:10.37,2013-04-06 09:51:00,
2013-04-05 23:56:00,68.8,64.4,30.08,NE,53,4.0,4.0,86,0.00,CLR,,0.00,0.0,WeatherDisplay:10.37,2013-04-06 09:56:00,